COJ weather

Coonabarabran Airport
New South Wales, Australia

Public forecast

Using degrees Celsius for public forecast. Weather courtesy of forecast.io.

METAR (pilot weather report)

Retrieved 2019/06/20 20:00 UTC (28 minutes ago):

YCBB 202000Z AUTO 21011KT 9999 // NCD 01/M03 Q1021

TAF (pilot weather forecast)

Closest forecast is Dubbo City Regional Airport, 63.8 nm (118.1 km) SSW. Retrieved 2019/06/20 18:36 UTC (2 hours ago):

TAF YSDU 201721Z 2018/2112 VRB03KT CAVOK BECMG 2022/2024 20012KT 9999 FEW030 FM210800 19007KT CAVOK PROB30 2018/2022 0500 FG BKN002